sensor_id;sensor_type;location;lat;lon;timestamp;temperature;humidity
36556;DHT22;40859;50.560;7.268;2023-04-15T00:01:22;22.50;70.90
36556;DHT22;40859;50.560;7.268;2023-04-15T00:03:51;22.50;70.90
36556;DHT22;40859;50.560;7.268;2023-04-15T00:06:17;22.50;70.80
36556;DHT22;40859;50.560;7.268;2023-04-15T00:08:44;22.50;70.80
36556;DHT22;40859;50.560;7.268;2023-04-15T00:11:11;22.50;70.80
36556;DHT22;40859;50.560;7.268;2023-04-15T00:13:37;22.50;70.70
36556;DHT22;40859;50.560;7.268;2023-04-15T00:16:05;22.50;70.70
36556;DHT22;40859;50.560;7.268;2023-04-15T00:18:31;22.50;70.70
36556;DHT22;40859;50.560;7.268;2023-04-15T00:20:57;22.40;70.60
36556;DHT22;40859;50.560;7.268;2023-04-15T00:23:24;22.40;70.50
36556;DHT22;40859;50.560;7.268;2023-04-15T00:25:50;22.40;70.30
36556;DHT22;40859;50.560;7.268;2023-04-15T00:28:16;22.40;70.30
36556;DHT22;40859;50.560;7.268;2023-04-15T00:30:42;22.40;70.30
36556;DHT22;40859;50.560;7.268;2023-04-15T00:33:08;22.40;70.40
36556;DHT22;40859;50.560;7.268;2023-04-15T00:35:34;22.40;70.40
36556;DHT22;40859;50.560;7.268;2023-04-15T00:38:03;22.40;70.30
36556;DHT22;40859;50.560;7.268;2023-04-15T00:40:29;22.30;70.20
36556;DHT22;40859;50.560;7.268;2023-04-15T00:42:55;22.40;70.30
36556;DHT22;40859;50.560;7.268;2023-04-15T00:45:21;22.40;70.20
36556;DHT22;40859;50.560;7.268;2023-04-15T00:47:48;22.30;70.20
36556;DHT22;40859;50.560;7.268;2023-04-15T00:50:15;22.30;70.20
36556;DHT22;40859;50.560;7.268;2023-04-15T00:52:41;22.30;70.20
36556;DHT22;40859;50.560;7.268;2023-04-15T00:55:08;22.30;70.20
36556;DHT22;40859;50.560;7.268;2023-04-15T00:57:34;22.30;70.10
36556;DHT22;40859;50.560;7.268;2023-04-15T01:00:01;22.30;70.20
36556;DHT22;40859;50.560;7.268;2023-04-15T01:02:27;22.30;70.10
36556;DHT22;40859;50.560;7.268;2023-04-15T01:04:53;22.30;70.10
36556;DHT22;40859;50.560;7.268;2023-04-15T01:07:19;22.30;70.00
36556;DHT22;40859;50.560;7.268;2023-04-15T01:09:46;22.30;70.00
36556;DHT22;40859;50.560;7.268;2023-04-15T01:12:13;22.30;70.00
36556;DHT22;40859;50.560;7.268;2023-04-15T01:14:41;22.30;70.00
36556;DHT22;40859;50.560;7.268;2023-04-15T01:17:06;22.30;70.00
36556;DHT22;40859;50.560;7.268;2023-04-15T01:19:33;22.30;69.90
36556;DHT22;40859;50.560;7.268;2023-04-15T01:22:02;22.30;69.80
36556;DHT22;40859;50.560;7.268;2023-04-15T01:24:29;22.20;69.70
36556;DHT22;40859;50.560;7.268;2023-04-15T01:26:56;22.20;69.80
36556;DHT22;40859;50.560;7.268;2023-04-15T01:29:22;22.20;69.80
36556;DHT22;40859;50.560;7.268;2023-04-15T01:31:53;22.20;69.70
36556;DHT22;40859;50.560;7.268;2023-04-15T01:34:19;22.20;69.80
36556;DHT22;40859;50.560;7.268;2023-04-15T01:36:45;22.20;69.70
36556;DHT22;40859;50.560;7.268;2023-04-15T01:39:12;22.20;69.70
36556;DHT22;40859;50.560;7.268;2023-04-15T01:41:38;22.20;69.60
36556;DHT22;40859;50.560;7.268;2023-04-15T01:44:04;22.20;69.60
36556;DHT22;40859;50.560;7.268;2023-04-15T01:46:31;22.20;69.60
36556;DHT22;40859;50.560;7.268;2023-04-15T01:48:57;22.10;69.30
36556;DHT22;40859;50.560;7.268;2023-04-15T01:51:23;22.20;69.40
36556;DHT22;40859;50.560;7.268;2023-04-15T01:53:49;22.20;69.30
36556;DHT22;40859;50.560;7.268;2023-04-15T01:56:15;22.10;70.30
36556;DHT22;40859;50.560;7.268;2023-04-15T01:58:41;22.10;69.30
36556;DHT22;40859;50.560;7.268;2023-04-15T02:01:07;22.10;69.20
36556;DHT22;40859;50.560;7.268;2023-04-15T02:03:35;22.10;69.30
36556;DHT22;40859;50.560;7.268;2023-04-15T02:06:01;22.10;69.30
36556;DHT22;40859;50.560;7.268;2023-04-15T02:08:29;22.10;69.30
36556;DHT22;40859;50.560;7.268;2023-04-15T02:10:55;22.10;69.30
36556;DHT22;40859;50.560;7.268;2023-04-15T02:13:21;22.10;69.30
36556;DHT22;40859;50.560;7.268;2023-04-15T02:15:48;22.10;69.30
36556;DHT22;40859;50.560;7.268;2023-04-15T02:18:15;22.10;69.30
36556;DHT22;40859;50.560;7.268;2023-04-15T02:20:41;22.10;69.20
36556;DHT22;40859;50.560;7.268;2023-04-15T02:23:11;22.10;69.30
36556;DHT22;40859;50.560;7.268;2023-04-15T02:25:37;22.00;69.20
36556;DHT22;40859;50.560;7.268;2023-04-15T02:28:04;22.00;69.20
36556;DHT22;40859;50.560;7.268;2023-04-15T02:30:31;22.00;69.10
36556;DHT22;40859;50.560;7.268;2023-04-15T02:32:57;22.00;69.20
36556;DHT22;40859;50.560;7.268;2023-04-15T02:35:22;22.10;69.30
36556;DHT22;40859;50.560;7.268;2023-04-15T02:37:50;22.00;69.30
36556;DHT22;40859;50.560;7.268;2023-04-15T02:40:17;22.00;68.70
36556;DHT22;40859;50.560;7.268;2023-04-15T02:42:43;22.00;69.10
36556;DHT22;40859;50.560;7.268;2023-04-15T02:45:10;22.00;68.70
36556;DHT22;40859;50.560;7.268;2023-04-15T02:47:37;22.00;68.80
36556;DHT22;40859;50.560;7.268;2023-04-15T02:50:09;22.00;68.90
36556;DHT22;40859;50.560;7.268;2023-04-15T02:52:40;22.00;69.00
36556;DHT22;40859;50.560;7.268;2023-04-15T02:55:07;22.00;68.90
36556;DHT22;40859;50.560;7.268;2023-04-15T02:57:34;21.90;68.80
36556;DHT22;40859;50.560;7.268;2023-04-15T03:00:06;21.90;68.90
36556;DHT22;40859;50.560;7.268;2023-04-15T04:52:10;21.60;67.90
36556;DHT22;40859;50.560;7.268;2023-04-15T04:54:36;21.60;68.00
36556;DHT22;40859;50.560;7.268;2023-04-15T04:57:02;21.50;67.90
36556;DHT22;40859;50.560;7.268;2023-04-15T04:59:29;21.60;67.90
36556;DHT22;40859;50.560;7.268;2023-04-15T05:01:55;21.60;67.90
36556;DHT22;40859;50.560;7.268;2023-04-15T05:04:21;21.50;67.90
36556;DHT22;40859;50.560;7.268;2023-04-15T05:06:47;21.50;67.90
36556;DHT22;40859;50.560;7.268;2023-04-15T05:09:13;21.50;68.00
36556;DHT22;40859;50.560;7.268;2023-04-15T05:11:39;21.50;67.90
36556;DHT22;40859;50.560;7.268;2023-04-15T05:14:05;21.30;64.30
36556;DHT22;40859;50.560;7.268;2023-04-15T05:16:31;21.20;65.00
36556;DHT22;40859;50.560;7.268;2023-04-15T05:18:57;21.10;67.90
36556;DHT22;40859;50.560;7.268;2023-04-15T05:21:23;21.20;67.50
36556;DHT22;40859;50.560;7.268;2023-04-15T05:23:49;21.30;67.70
36556;DHT22;40859;50.560;7.268;2023-04-15T05:26:15;21.30;67.60
36556;DHT22;40859;50.560;7.268;2023-04-15T05:28:41;21.30;67.60
36556;DHT22;40859;50.560;7.268;2023-04-15T05:31:07;21.30;67.70
36556;DHT22;40859;50.560;7.268;2023-04-15T05:33:33;21.40;67.80
36556;DHT22;40859;50.560;7.268;2023-04-15T05:35:58;21.40;67.80
36556;DHT22;40859;50.560;7.268;2023-04-15T05:38:24;21.40;67.90
36556;DHT22;40859;50.560;7.268;2023-04-15T05:40:50;21.50;68.00
36556;DHT22;40859;50.560;7.268;2023-04-15T05:43:16;21.40;67.90
36556;DHT22;40859;50.560;7.268;2023-04-15T05:45:42;21.50;68.00
36556;DHT22;40859;50.560;7.268;2023-04-15T05:48:08;21.50;68.00
36556;DHT22;40859;50.560;7.268;2023-04-15T05:50:34;21.50;68.00
36556;DHT22;40859;50.560;7.268;2023-04-15T05:53:00;21.50;68.00
36556;DHT22;40859;50.560;7.268;2023-04-15T05:55:26;21.50;68.00
36556;DHT22;40859;50.560;7.268;2023-04-15T05:57:52;21.50;68.20
36556;DHT22;40859;50.560;7.268;2023-04-15T06:00:18;21.50;68.20
36556;DHT22;40859;50.560;7.268;2023-04-15T06:02:44;21.50;68.30
36556;DHT22;40859;50.560;7.268;2023-04-15T06:05:10;21.50;68.40
36556;DHT22;40859;50.560;7.268;2023-04-15T06:07:37;21.50;68.40
36556;DHT22;40859;50.560;7.268;2023-04-15T06:10:04;21.50;68.40
36556;DHT22;40859;50.560;7.268;2023-04-15T06:12:30;21.60;68.70
36556;DHT22;40859;50.560;7.268;2023-04-15T06:14:56;21.60;68.60
36556;DHT22;40859;50.560;7.268;2023-04-15T06:17:22;21.50;68.20
36556;DHT22;40859;50.560;7.268;2023-04-15T06:19:47;21.60;68.70
36556;DHT22;40859;50.560;7.268;2023-04-15T06:22:16;21.60;68.80
36556;DHT22;40859;50.560;7.268;2023-04-15T06:24:41;21.60;68.90
36556;DHT22;40859;50.560;7.268;2023-04-15T06:27:07;21.60;68.90
36556;DHT22;40859;50.560;7.268;2023-04-15T06:29:37;21.60;69.00
36556;DHT22;40859;50.560;7.268;2023-04-15T06:32:03;21.70;69.10
36556;DHT22;40859;50.560;7.268;2023-04-15T06:34:29;21.60;69.10
36556;DHT22;40859;50.560;7.268;2023-04-15T06:36:55;21.70;69.30
36556;DHT22;40859;50.560;7.268;2023-04-15T06:39:21;21.70;69.50
36556;DHT22;40859;50.560;7.268;2023-04-15T06:41:47;21.70;70.40
36556;DHT22;40859;50.560;7.268;2023-04-15T06:44:13;21.70;69.70
36556;DHT22;40859;50.560;7.268;2023-04-15T06:46:39;21.70;69.60
36556;DHT22;40859;50.560;7.268;2023-04-15T06:49:05;21.70;70.50
36556;DHT22;40859;50.560;7.268;2023-04-15T06:51:30;21.70;69.80
36556;DHT22;40859;50.560;7.268;2023-04-15T06:53:57;21.70;69.70
36556;DHT22;40859;50.560;7.268;2023-04-15T06:56:23;21.70;69.80
36556;DHT22;40859;50.560;7.268;2023-04-15T06:58:48;21.70;70.00
36556;DHT22;40859;50.560;7.268;2023-04-15T07:01:15;21.70;70.00
36556;DHT22;40859;50.560;7.268;2023-04-15T07:03:40;21.70;70.00
36556;DHT22;40859;50.560;7.268;2023-04-15T07:06:07;21.70;70.10
36556;DHT22;40859;50.560;7.268;2023-04-15T07:08:34;21.80;70.20
36556;DHT22;40859;50.560;7.268;2023-04-15T07:11:00;21.80;70.10
36556;DHT22;40859;50.560;7.268;2023-04-15T07:13:26;21.80;70.10
36556;DHT22;40859;50.560;7.268;2023-04-15T07:15:52;21.80;70.10
36556;DHT22;40859;50.560;7.268;2023-04-15T07:18:17;21.80;70.20
36556;DHT22;40859;50.560;7.268;2023-04-15T07:20:44;21.80;70.10
36556;DHT22;40859;50.560;7.268;2023-04-15T07:23:09;21.80;70.20
36556;DHT22;40859;50.560;7.268;2023-04-15T07:25:35;21.80;70.20
36556;DHT22;40859;50.560;7.268;2023-04-15T07:28:01;21.80;70.20
36556;DHT22;40859;50.560;7.268;2023-04-15T07:30:27;21.80;70.20
36556;DHT22;40859;50.560;7.268;2023-04-15T07:32:54;21.80;70.10
36556;DHT22;40859;50.560;7.268;2023-04-15T07:35:20;21.80;70.20
36556;DHT22;40859;50.560;7.268;2023-04-15T07:37:47;21.90;70.40
36556;DHT22;40859;50.560;7.268;2023-04-15T07:40:13;21.80;70.20
36556;DHT22;40859;50.560;7.268;2023-04-15T07:42:40;21.80;70.30
36556;DHT22;40859;50.560;7.268;2023-04-15T07:45:07;21.90;70.50
36556;DHT22;40859;50.560;7.268;2023-04-15T07:47:33;21.90;70.50
36556;DHT22;40859;50.560;7.268;2023-04-15T07:49:59;21.90;70.50
36556;DHT22;40859;50.560;7.268;2023-04-15T07:52:26;21.90;70.60
36556;DHT22;40859;50.560;7.268;2023-04-15T07:54:52;21.90;70.60
36556;DHT22;40859;50.560;7.268;2023-04-15T07:57:18;21.80;68.90
36556;DHT22;40859;50.560;7.268;2023-04-15T07:59:44;21.80;69.00
36556;DHT22;40859;50.560;7.268;2023-04-15T08:02:10;21.80;69.60
36556;DHT22;40859;50.560;7.268;2023-04-15T08:04:36;21.70;69.30
36556;DHT22;40859;50.560;7.268;2023-04-15T08:07:03;21.70;69.60
36556;DHT22;40859;50.560;7.268;2023-04-15T08:09:29;21.70;69.80
36556;DHT22;40859;50.560;7.268;2023-04-15T08:11:55;21.70;70.20
36556;DHT22;40859;50.560;7.268;2023-04-15T08:14:23;21.80;70.40
36556;DHT22;40859;50.560;7.268;2023-04-15T08:16:48;21.80;70.40
36556;DHT22;40859;50.560;7.268;2023-04-15T08:19:14;21.80;70.40
36556;DHT22;40859;50.560;7.268;2023-04-15T08:21:40;21.80;70.40
36556;DHT22;40859;50.560;7.268;2023-04-15T08:24:06;21.80;70.70
36556;DHT22;40859;50.560;7.268;2023-04-15T08:26:32;21.80;70.50
36556;DHT22;40859;50.560;7.268;2023-04-15T08:28:58;21.80;70.50
36556;DHT22;40859;50.560;7.268;2023-04-15T08:31:25;21.90;70.80
36556;DHT22;40859;50.560;7.268;2023-04-15T08:33:51;21.90;70.70
36556;DHT22;40859;50.560;7.268;2023-04-15T08:36:19;21.90;70.80
36556;DHT22;40859;50.560;7.268;2023-04-15T08:38:44;21.90;70.90
36556;DHT22;40859;50.560;7.268;2023-04-15T08:42:01;21.90;71.00
36556;DHT22;40859;50.560;7.268;2023-04-15T08:44:29;21.90;71.10
36556;DHT22;40859;50.560;7.268;2023-04-15T08:47:01;21.90;71.10
36556;DHT22;40859;50.560;7.268;2023-04-15T08:49:28;21.90;71.00
36556;DHT22;40859;50.560;7.268;2023-04-15T08:51:54;21.90;71.10
36556;DHT22;40859;50.560;7.268;2023-04-15T08:54:21;21.90;71.10
36556;DHT22;40859;50.560;7.268;2023-04-15T08:56:47;21.90;71.10
36556;DHT22;40859;50.560;7.268;2023-04-15T08:59:14;21.90;71.10
36556;DHT22;40859;50.560;7.268;2023-04-15T09:01:41;21.90;71.00
36556;DHT22;40859;50.560;7.268;2023-04-15T09:04:07;21.90;71.10
36556;DHT22;40859;50.560;7.268;2023-04-15T09:06:33;21.90;71.00
36556;DHT22;40859;50.560;7.268;2023-04-15T09:08:58;21.90;71.00
36556;DHT22;40859;50.560;7.268;2023-04-15T09:11:25;21.90;70.70
36556;DHT22;40859;50.560;7.268;2023-04-15T09:13:51;21.90;70.70
36556;DHT22;40859;50.560;7.268;2023-04-15T09:16:17;21.90;70.90
36556;DHT22;40859;50.560;7.268;2023-04-15T09:18:43;21.90;70.50
36556;DHT22;40859;50.560;7.268;2023-04-15T09:21:11;21.90;70.50
36556;DHT22;40859;50.560;7.268;2023-04-15T09:23:39;21.90;70.50
36556;DHT22;40859;50.560;7.268;2023-04-15T09:26:06;21.90;70.60
36556;DHT22;40859;50.560;7.268;2023-04-15T09:28:32;21.90;70.70
36556;DHT22;40859;50.560;7.268;2023-04-15T09:31:01;21.90;70.70
36556;DHT22;40859;50.560;7.268;2023-04-15T09:33:28;21.90;70.90
36556;DHT22;40859;50.560;7.268;2023-04-15T09:36:02;21.90;70.90
36556;DHT22;40859;50.560;7.268;2023-04-15T09:38:29;21.90;71.00
36556;DHT22;40859;50.560;7.268;2023-04-15T09:40:55;21.90;71.00
36556;DHT22;40859;50.560;7.268;2023-04-15T09:43:21;21.90;71.10
36556;DHT22;40859;50.560;7.268;2023-04-15T09:45:52;21.90;71.10
36556;DHT22;40859;50.560;7.268;2023-04-15T09:48:23;21.90;71.10
36556;DHT22;40859;50.560;7.268;2023-04-15T09:50:51;21.90;71.30
36556;DHT22;40859;50.560;7.268;2023-04-15T09:53:22;21.90;71.20
36556;DHT22;40859;50.560;7.268;2023-04-15T09:55:56;22.00;71.40
36556;DHT22;40859;50.560;7.268;2023-04-15T09:58:33;21.90;71.40
36556;DHT22;40859;50.560;7.268;2023-04-15T10:01:01;22.00;71.40
36556;DHT22;40859;50.560;7.268;2023-04-15T10:03:32;22.00;71.40
36556;DHT22;40859;50.560;7.268;2023-04-15T10:06:00;22.00;71.40
36556;DHT22;40859;50.560;7.268;2023-04-15T10:08:31;22.00;71.30
36556;DHT22;40859;50.560;7.268;2023-04-15T10:10:57;22.00;71.40
36556;DHT22;40859;50.560;7.268;2023-04-15T10:13:29;22.00;71.50
36556;DHT22;40859;50.560;7.268;2023-04-15T10:16:05;22.00;71.10
36556;DHT22;40859;50.560;7.268;2023-04-15T10:18:34;21.90;71.30
36556;DHT22;40859;50.560;7.268;2023-04-15T10:21:03;22.00;71.30
36556;DHT22;40859;50.560;7.268;2023-04-15T10:23:32;22.00;71.10
36556;DHT22;40859;50.560;7.268;2023-04-15T10:25:58;22.00;71.20
36556;DHT22;40859;50.560;7.268;2023-04-15T10:28:25;22.00;71.20
36556;DHT22;40859;50.560;7.268;2023-04-15T10:30:52;22.00;70.80
36556;DHT22;40859;50.560;7.268;2023-04-15T10:33:21;22.00;70.60
36556;DHT22;40859;50.560;7.268;2023-04-15T10:35:49;22.00;70.60
36556;DHT22;40859;50.560;7.268;2023-04-15T10:41:26;22.00;71.30
36556;DHT22;40859;50.560;7.268;2023-04-15T10:44:02;22.00;71.40
36556;DHT22;40859;50.560;7.268;2023-04-15T10:46:42;22.00;71.50
36556;DHT22;40859;50.560;7.268;2023-04-15T10:49:16;22.00;71.50
36556;DHT22;40859;50.560;7.268;2023-04-15T10:51:49;22.00;71.70
36556;DHT22;40859;50.560;7.268;2023-04-15T10:54:36;22.00;71.50
36556;DHT22;40859;50.560;7.268;2023-04-15T10:57:08;22.00;71.00
36556;DHT22;40859;50.560;7.268;2023-04-15T11:00:02;22.00;71.30
36556;DHT22;40859;50.560;7.268;2023-04-15T11:03:20;22.00;70.90
36556;DHT22;40859;50.560;7.268;2023-04-15T11:05:59;22.00;71.10
36556;DHT22;40859;50.560;7.268;2023-04-15T11:08:57;22.00;70.90
36556;DHT22;40859;50.560;7.268;2023-04-15T11:12:09;22.00;71.20
36556;DHT22;40859;50.560;7.268;2023-04-15T11:14:41;22.00;71.50
36556;DHT22;40859;50.560;7.268;2023-04-15T11:17:07;22.00;71.60
36556;DHT22;40859;50.560;7.268;2023-04-15T11:19:37;22.00;71.70
36556;DHT22;40859;50.560;7.268;2023-04-15T11:22:10;22.10;71.80
36556;DHT22;40859;50.560;7.268;2023-04-15T11:24:45;22.10;71.80
36556;DHT22;40859;50.560;7.268;2023-04-15T11:27:20;22.10;71.50
36556;DHT22;40859;50.560;7.268;2023-04-15T11:29:46;22.10;71.40
36556;DHT22;40859;50.560;7.268;2023-04-15T11:32:12;22.10;71.60
36556;DHT22;40859;50.560;7.268;2023-04-15T11:34:37;22.10;71.60
36556;DHT22;40859;50.560;7.268;2023-04-15T11:37:04;22.10;71.80
36556;DHT22;40859;50.560;7.268;2023-04-15T11:39:31;22.10;71.80
36556;DHT22;40859;50.560;7.268;2023-04-15T11:41:57;22.10;71.90
36556;DHT22;40859;50.560;7.268;2023-04-15T11:44:23;22.10;71.90
36556;DHT22;40859;50.560;7.268;2023-04-15T11:46:49;22.10;72.00
36556;DHT22;40859;50.560;7.268;2023-04-15T11:49:28;22.10;72.00
36556;DHT22;40859;50.560;7.268;2023-04-15T11:51:55;22.10;72.20
36556;DHT22;40859;50.560;7.268;2023-04-15T11:54:21;22.10;72.10
36556;DHT22;40859;50.560;7.268;2023-04-15T11:56:50;22.10;72.20
36556;DHT22;40859;50.560;7.268;2023-04-15T11:59:17;22.10;72.10
36556;DHT22;40859;50.560;7.268;2023-04-15T12:01:43;22.10;71.80
36556;DHT22;40859;50.560;7.268;2023-04-15T12:04:15;22.10;72.10
36556;DHT22;40859;50.560;7.268;2023-04-15T12:06:47;22.10;71.80
36556;DHT22;40859;50.560;7.268;2023-04-15T12:09:15;22.10;72.10
36556;DHT22;40859;50.560;7.268;2023-04-15T12:12:02;22.10;72.20
36556;DHT22;40859;50.560;7.268;2023-04-15T12:14:29;22.10;72.00
36556;DHT22;40859;50.560;7.268;2023-04-15T12:17:03;22.10;72.10
36556;DHT22;40859;50.560;7.268;2023-04-15T12:19:37;22.10;72.10
36556;DHT22;40859;50.560;7.268;2023-04-15T12:22:11;22.10;72.20
36556;DHT22;40859;50.560;7.268;2023-04-15T12:24:38;22.10;72.10
36556;DHT22;40859;50.560;7.268;2023-04-15T12:27:06;22.10;72.10
36556;DHT22;40859;50.560;7.268;2023-04-15T12:29:33;22.10;72.10
36556;DHT22;40859;50.560;7.268;2023-04-15T12:32:10;22.10;72.20
36556;DHT22;40859;50.560;7.268;2023-04-15T12:34:51;22.10;72.20
36556;DHT22;40859;50.560;7.268;2023-04-15T12:37:17;22.10;72.20
36556;DHT22;40859;50.560;7.268;2023-04-15T12:39:46;22.10;72.20
36556;DHT22;40859;50.560;7.268;2023-04-15T12:42:14;22.10;72.10
36556;DHT22;40859;50.560;7.268;2023-04-15T12:44:40;22.10;71.90
36556;DHT22;40859;50.560;7.268;2023-04-15T12:47:07;22.10;72.00
36556;DHT22;40859;50.560;7.268;2023-04-15T12:49:33;22.10;72.10
36556;DHT22;40859;50.560;7.268;2023-04-15T12:52:00;22.10;72.30
36556;DHT22;40859;50.560;7.268;2023-04-15T12:54:27;22.10;72.00
36556;DHT22;40859;50.560;7.268;2023-04-15T12:56:53;22.10;71.90
36556;DHT22;40859;50.560;7.268;2023-04-15T12:59:20;22.10;71.80
36556;DHT22;40859;50.560;7.268;2023-04-15T13:01:47;22.10;71.80
36556;DHT22;40859;50.560;7.268;2023-04-15T13:04:14;22.10;72.00
36556;DHT22;40859;50.560;7.268;2023-04-15T13:06:40;22.10;72.00
36556;DHT22;40859;50.560;7.268;2023-04-15T13:09:06;22.10;71.90
36556;DHT22;40859;50.560;7.268;2023-04-15T13:11:32;22.10;72.00
36556;DHT22;40859;50.560;7.268;2023-04-15T13:14:03;22.10;71.90
36556;DHT22;40859;50.560;7.268;2023-04-15T13:16:29;22.10;72.00
36556;DHT22;40859;50.560;7.268;2023-04-15T13:18:57;22.10;72.10
36556;DHT22;40859;50.560;7.268;2023-04-15T13:21:23;22.10;72.10
36556;DHT22;40859;50.560;7.268;2023-04-15T13:23:49;22.10;72.10
36556;DHT22;40859;50.560;7.268;2023-04-15T13:26:18;22.10;72.30
36556;DHT22;40859;50.560;7.268;2023-04-15T13:28:44;22.10;72.30
36556;DHT22;40859;50.560;7.268;2023-04-15T13:31:10;22.10;72.20
36556;DHT22;40859;50.560;7.268;2023-04-15T13:33:36;22.10;72.40
36556;DHT22;40859;50.560;7.268;2023-04-15T13:36:02;22.10;73.30
36556;DHT22;40859;50.560;7.268;2023-04-15T13:38:28;22.10;72.50
36556;DHT22;40859;50.560;7.268;2023-04-15T13:40:55;22.10;72.50
36556;DHT22;40859;50.560;7.268;2023-04-15T13:43:21;22.10;72.50
36556;DHT22;40859;50.560;7.268;2023-04-15T13:45:47;22.10;72.50
36556;DHT22;40859;50.560;7.268;2023-04-15T13:48:13;22.10;72.60
36556;DHT22;40859;50.560;7.268;2023-04-15T13:50:39;22.10;72.60
36556;DHT22;40859;50.560;7.268;2023-04-15T13:53:10;22.10;72.50
36556;DHT22;40859;50.560;7.268;2023-04-15T13:55:36;22.10;72.70
36556;DHT22;40859;50.560;7.268;2023-04-15T13:58:06;22.10;72.60
36556;DHT22;40859;50.560;7.268;2023-04-15T14:00:32;22.10;72.60
36556;DHT22;40859;50.560;7.268;2023-04-15T14:02:58;22.10;72.70
36556;DHT22;40859;50.560;7.268;2023-04-15T14:05:24;22.10;72.70
36556;DHT22;40859;50.560;7.268;2023-04-15T14:07:50;22.10;72.60
36556;DHT22;40859;50.560;7.268;2023-04-15T14:10:16;22.10;72.60
36556;DHT22;40859;50.560;7.268;2023-04-15T14:12:42;22.10;72.60
36556;DHT22;40859;50.560;7.268;2023-04-15T14:15:08;22.10;72.70
36556;DHT22;40859;50.560;7.268;2023-04-15T14:17:34;22.10;72.70
36556;DHT22;40859;50.560;7.268;2023-04-15T14:20:00;22.10;72.70
36556;DHT22;40859;50.560;7.268;2023-04-15T14:22:26;22.10;72.70
36556;DHT22;40859;50.560;7.268;2023-04-15T14:24:52;22.10;72.80
36556;DHT22;40859;50.560;7.268;2023-04-15T14:27:20;22.10;72.70
36556;DHT22;40859;50.560;7.268;2023-04-15T14:29:46;22.10;72.60
36556;DHT22;40859;50.560;7.268;2023-04-15T14:32:11;22.10;72.80
36556;DHT22;40859;50.560;7.268;2023-04-15T14:34:37;22.10;72.90
36556;DHT22;40859;50.560;7.268;2023-04-15T14:37:03;22.10;72.80
36556;DHT22;40859;50.560;7.268;2023-04-15T14:39:29;22.10;72.90
36556;DHT22;40859;50.560;7.268;2023-04-15T14:41:55;22.10;73.70
36556;DHT22;40859;50.560;7.268;2023-04-15T14:44:21;22.10;72.90
36556;DHT22;40859;50.560;7.268;2023-04-15T14:46:47;22.10;72.80
36556;DHT22;40859;50.560;7.268;2023-04-15T14:49:13;22.10;72.90
36556;DHT22;40859;50.560;7.268;2023-04-15T14:51:39;22.10;73.00
36556;DHT22;40859;50.560;7.268;2023-04-15T14:54:05;22.10;73.10
36556;DHT22;40859;50.560;7.268;2023-04-15T14:56:31;22.10;73.10
36556;DHT22;40859;50.560;7.268;2023-04-15T14:58:57;22.10;73.00
36556;DHT22;40859;50.560;7.268;2023-04-15T15:01:24;22.10;72.90
36556;DHT22;40859;50.560;7.268;2023-04-15T15:03:50;22.10;73.20
36556;DHT22;40859;50.560;7.268;2023-04-15T15:06:16;22.10;73.00
36556;DHT22;40859;50.560;7.268;2023-04-15T15:08:42;22.10;73.10
36556;DHT22;40859;50.560;7.268;2023-04-15T15:11:10;22.10;73.00
36556;DHT22;40859;50.560;7.268;2023-04-15T15:13:37;22.10;73.00
36556;DHT22;40859;50.560;7.268;2023-04-15T15:16:03;22.10;73.00
36556;DHT22;40859;50.560;7.268;2023-04-15T15:18:29;22.10;72.90
36556;DHT22;40859;50.560;7.268;2023-04-15T15:20:55;22.20;73.10
36556;DHT22;40859;50.560;7.268;2023-04-15T15:23:20;22.20;73.20
36556;DHT22;40859;50.560;7.268;2023-04-15T15:25:46;22.10;73.50
36556;DHT22;40859;50.560;7.268;2023-04-15T15:28:12;22.10;73.40
36556;DHT22;40859;50.560;7.268;2023-04-15T15:30:38;22.10;73.10
36556;DHT22;40859;50.560;7.268;2023-04-15T15:33:04;22.10;73.50
36556;DHT22;40859;50.560;7.268;2023-04-15T15:35:31;22.10;73.50
36556;DHT22;40859;50.560;7.268;2023-04-15T15:37:58;22.10;73.40
36556;DHT22;40859;50.560;7.268;2023-04-15T15:40:25;22.10;73.50
36556;DHT22;40859;50.560;7.268;2023-04-15T15:42:57;22.10;73.30
36556;DHT22;40859;50.560;7.268;2023-04-15T15:45:23;22.10;73.60
36556;DHT22;40859;50.560;7.268;2023-04-15T15:47:49;22.10;73.60
36556;DHT22;40859;50.560;7.268;2023-04-15T15:50:15;22.10;73.80
36556;DHT22;40859;50.560;7.268;2023-04-15T15:52:41;22.10;73.70
36556;DHT22;40859;50.560;7.268;2023-04-15T15:55:07;22.10;73.50
36556;DHT22;40859;50.560;7.268;2023-04-15T15:57:33;22.10;73.50
36556;DHT22;40859;50.560;7.268;2023-04-15T15:59:59;22.10;73.60
36556;DHT22;40859;50.560;7.268;2023-04-15T16:02:25;22.10;73.80
36556;DHT22;40859;50.560;7.268;2023-04-15T16:04:52;22.10;73.50
36556;DHT22;40859;50.560;7.268;2023-04-15T16:07:17;22.10;73.40
36556;DHT22;40859;50.560;7.268;2023-04-15T16:09:43;22.10;73.40
36556;DHT22;40859;50.560;7.268;2023-04-15T16:12:10;22.10;73.50
36556;DHT22;40859;50.560;7.268;2023-04-15T16:14:36;22.10;73.40
36556;DHT22;40859;50.560;7.268;2023-04-15T16:17:02;22.20;73.80
36556;DHT22;40859;50.560;7.268;2023-04-15T16:19:28;22.10;73.70
36556;DHT22;40859;50.560;7.268;2023-04-15T16:21:54;22.20;73.80
36556;DHT22;40859;50.560;7.268;2023-04-15T16:24:20;22.20;73.90
36556;DHT22;40859;50.560;7.268;2023-04-15T16:26:46;22.10;73.70
36556;DHT22;40859;50.560;7.268;2023-04-15T16:29:11;22.10;73.90
36556;DHT22;40859;50.560;7.268;2023-04-15T16:31:37;22.20;73.90
36556;DHT22;40859;50.560;7.268;2023-04-15T16:34:05;22.10;73.60
36556;DHT22;40859;50.560;7.268;2023-04-15T16:36:33;22.20;73.90
36556;DHT22;40859;50.560;7.268;2023-04-15T16:38:59;22.20;74.60
36556;DHT22;40859;50.560;7.268;2023-04-15T16:41:25;22.10;74.10
36556;DHT22;40859;50.560;7.268;2023-04-15T16:43:52;22.10;73.80
36556;DHT22;40859;50.560;7.268;2023-04-15T16:46:18;22.10;74.00
36556;DHT22;40859;50.560;7.268;2023-04-15T16:48:43;22.10;73.80
36556;DHT22;40859;50.560;7.268;2023-04-15T16:51:09;22.20;74.30
36556;DHT22;40859;50.560;7.268;2023-04-15T16:53:35;22.10;73.80
36556;DHT22;40859;50.560;7.268;2023-04-15T16:56:02;22.10;74.00
36556;DHT22;40859;50.560;7.268;2023-04-15T16:58:28;22.20;74.00
36556;DHT22;40859;50.560;7.268;2023-04-15T17:00:54;22.10;74.10
36556;DHT22;40859;50.560;7.268;2023-04-15T17:03:20;22.10;74.10
36556;DHT22;40859;50.560;7.268;2023-04-15T17:05:46;22.20;73.90
36556;DHT22;40859;50.560;7.268;2023-04-15T17:08:13;22.10;74.10
36556;DHT22;40859;50.560;7.268;2023-04-15T17:10:39;22.20;74.00
36556;DHT22;40859;50.560;7.268;2023-04-15T17:13:05;22.20;74.20
36556;DHT22;40859;50.560;7.268;2023-04-15T17:15:31;22.20;74.10
36556;DHT22;40859;50.560;7.268;2023-04-15T17:17:57;22.20;74.10
36556;DHT22;40859;50.560;7.268;2023-04-15T17:20:23;22.20;74.00
36556;DHT22;40859;50.560;7.268;2023-04-15T17:22:51;22.20;73.90
36556;DHT22;40859;50.560;7.268;2023-04-15T17:25:17;22.20;73.90